createdAt,value
2018-06-23T00:00:10.572Z,4.60
2018-06-23T00:02:38.659Z,4.47
2018-06-23T00:05:06.743Z,5.00
2018-06-23T00:07:34.828Z,4.23
2018-06-23T00:10:02.908Z,5.47
2018-06-23T00:12:30.995Z,5.17
2018-06-23T00:14:59.089Z,4.70
2018-06-23T00:17:27.183Z,4.83
2018-06-23T00:19:55.267Z,4.10
2018-06-23T00:22:23.462Z,4.00
2018-06-23T00:24:51.560Z,4.77
2018-06-23T00:27:19.644Z,4.30
2018-06-23T00:29:47.735Z,4.20
2018-06-23T00:32:15.822Z,3.97
2018-06-23T00:34:44.016Z,5.30
2018-06-23T00:37:12.095Z,5.33
2018-06-23T00:39:40.179Z,3.97
2018-06-23T00:42:08.443Z,4.40
2018-06-23T00:44:36.826Z,4.50
2018-06-23T00:47:05.088Z,3.73
2018-06-23T00:49:33.419Z,4.67
2018-06-23T00:52:01.861Z,4.07
2018-06-23T00:54:30.033Z,4.93
2018-06-23T00:56:58.124Z,4.23
2018-06-23T00:59:31.707Z,4.37
2018-06-23T01:01:59.783Z,4.30
2018-06-23T01:04:27.919Z,4.10
2018-06-23T01:06:56.004Z,4.47
2018-06-23T01:09:24.203Z,4.03
2018-06-23T01:11:52.328Z,3.97
2018-06-23T01:14:20.455Z,4.23
2018-06-23T01:16:48.603Z,4.03
2018-06-23T01:19:16.696Z,5.10
2018-06-23T01:21:44.776Z,4.77
2018-06-23T01:24:12.878Z,4.23
2018-06-23T01:26:40.835Z,4.47
2018-06-23T01:29:08.916Z,3.77
2018-06-23T01:31:37.007Z,4.57
2018-06-23T01:34:05.125Z,4.80
2018-06-23T01:36:33.579Z,4.20
2018-06-23T01:39:01.728Z,3.70
2018-06-23T01:41:29.843Z,4.73
2018-06-23T01:43:57.924Z,3.60
2018-06-23T01:46:26.031Z,3.80
2018-06-23T01:48:54.383Z,4.40
2018-06-23T01:51:22.515Z,3.83
2018-06-23T01:53:50.623Z,3.97
2018-06-23T01:56:18.771Z,4.57
2018-06-23T01:58:46.878Z,4.47
2018-06-23T02:01:15.067Z,3.90
2018-06-23T02:03:42.941Z,4.27
2018-06-23T02:06:11.063Z,3.87
2018-06-23T02:08:39.155Z,3.77
2018-06-23T02:11:07.407Z,4.00
2018-06-23T02:13:35.604Z,4.00
2018-06-23T02:16:09.186Z,3.87
2018-06-23T02:18:42.584Z,4.03
2018-06-23T02:21:16.150Z,3.43
2018-06-23T02:23:49.771Z,3.63
2018-06-23T02:26:23.303Z,3.90
2018-06-23T02:28:56.796Z,3.93
2018-06-23T02:31:30.371Z,3.80
2018-06-23T02:34:03.823Z,3.63
2018-06-23T02:36:31.908Z,3.43
2018-06-23T02:39:06.492Z,3.97
2018-06-23T02:41:34.571Z,3.50
2018-06-23T02:44:02.859Z,3.80
2018-06-23T02:46:30.988Z,4.37
2018-06-23T02:48:59.089Z,3.40
2018-06-23T02:51:27.179Z,3.93
2018-06-23T02:53:55.292Z,3.13
2018-06-23T02:56:23.484Z,4.70
2018-06-23T02:58:51.593Z,3.40
2018-06-23T03:01:19.738Z,3.27
2018-06-23T03:03:48.032Z,3.17
2018-06-23T03:06:16.138Z,3.67
2018-06-23T03:08:44.199Z,3.37
2018-06-23T03:11:12.319Z,2.90
2018-06-23T03:13:40.421Z,4.50
2018-06-23T03:16:08.499Z,3.27
2018-06-23T03:18:36.584Z,3.07
2018-06-23T03:21:04.458Z,3.50
2018-06-23T03:23:32.549Z,3.23
2018-06-23T03:26:00.648Z,3.43
2018-06-23T03:28:28.876Z,3.93
2018-06-23T03:30:56.986Z,3.63
2018-06-23T03:33:25.105Z,3.30
2018-06-23T03:35:53.175Z,3.30
2018-06-23T03:38:21.429Z,3.20
2018-06-23T03:40:49.527Z,3.80
2018-06-23T03:43:17.616Z,3.20
2018-06-23T03:45:45.739Z,4.07
2018-06-23T03:48:13.843Z,3.53
2018-06-23T03:50:41.932Z,2.97
2018-06-23T03:53:10.052Z,2.93
2018-06-23T03:55:38.192Z,3.10
2018-06-23T03:58:06.302Z,2.67
2018-06-23T04:00:34.520Z,3.50
2018-06-23T04:03:02.688Z,2.90
2018-06-23T04:05:31.167Z,3.00
2018-06-23T04:07:59.264Z,3.63
2018-06-23T04:10:27.165Z,4.00
2018-06-23T04:12:55.303Z,2.70
2018-06-23T04:15:23.184Z,3.07
2018-06-23T04:17:51.274Z,2.67
2018-06-23T04:20:19.384Z,3.13
2018-06-23T04:22:47.500Z,3.07
2018-06-23T04:25:15.600Z,2.97
2018-06-23T04:27:43.745Z,2.60
2018-06-23T04:30:11.861Z,2.80
2018-06-23T04:32:39.976Z,2.87
2018-06-23T04:35:07.832Z,3.30
2018-06-23T04:37:35.931Z,3.20
2018-06-23T04:40:04.349Z,2.77
2018-06-23T04:42:32.435Z,3.47
2018-06-23T04:45:00.524Z,3.37
2018-06-23T04:47:28.644Z,3.07
2018-06-23T04:49:57.291Z,3.23
2018-06-23T04:52:25.380Z,2.70
2018-06-23T04:54:53.480Z,3.07
2018-06-23T04:57:21.579Z,2.87
2018-06-23T04:59:49.690Z,2.63
2018-06-23T05:02:17.801Z,3.30
2018-06-23T05:04:45.917Z,2.60
2018-06-23T05:07:14.064Z,2.63
2018-06-23T05:09:42.170Z,2.47
2018-06-23T05:12:10.432Z,2.60
2018-06-23T05:14:38.567Z,2.50
2018-06-23T05:17:06.700Z,2.43
2018-06-23T05:19:35.088Z,3.23
2018-06-23T05:22:03.185Z,3.03
2018-06-23T05:24:31.283Z,2.73
2018-06-23T05:26:59.376Z,2.30
2018-06-23T05:29:27.484Z,2.63
2018-06-23T05:31:55.596Z,2.50
2018-06-23T05:34:23.715Z,2.37
2018-06-23T05:36:51.592Z,2.53
2018-06-23T05:39:19.707Z,2.73
2018-06-23T05:41:47.800Z,2.80
2018-06-23T05:44:15.899Z,2.13
2018-06-23T05:46:44.004Z,2.40
2018-06-23T05:49:12.115Z,2.30
2018-06-23T05:51:40.202Z,2.60
2018-06-23T05:54:08.479Z,1.90
2018-06-23T05:56:36.564Z,2.03
2018-06-23T05:59:04.728Z,2.70
2018-06-23T06:01:32.852Z,2.33
2018-06-23T06:04:00.960Z,2.40
2018-06-23T06:06:29.069Z,2.67
2018-06-23T06:08:57.184Z,2.10
2018-06-23T06:11:25.291Z,2.43
2018-06-23T06:13:53.456Z,3.43
2018-06-23T06:16:28.780Z,2.33
2018-06-23T06:18:56.867Z,2.17
2018-06-23T06:21:25.252Z,2.23
2018-06-23T06:23:53.414Z,2.50
2018-06-23T06:26:21.473Z,2.70
2018-06-23T06:28:49.552Z,2.57
2018-06-23T06:31:17.629Z,2.40
2018-06-23T06:33:45.723Z,2.10
2018-06-23T06:36:13.824Z,2.17
2018-06-23T06:38:41.922Z,2.50
2018-06-23T06:41:09.997Z,2.13
2018-06-23T06:43:38.104Z,1.73
2018-06-23T06:46:06.215Z,2.10
2018-06-23T06:48:34.311Z,1.87
2018-06-23T06:51:02.415Z,2.47
2018-06-23T06:53:30.530Z,2.17
2018-06-23T06:55:58.644Z,2.57
2018-06-23T06:58:26.715Z,2.43
2018-06-23T07:00:54.787Z,2.80
2018-06-23T07:03:22.899Z,1.80
2018-06-23T07:05:51.084Z,2.20
2018-06-23T07:08:18.987Z,2.17
2018-06-23T07:10:47.056Z,2.30
2018-06-23T07:13:15.164Z,2.20
2018-06-23T07:15:43.276Z,2.10
2018-06-23T07:18:11.368Z,2.10
2018-06-23T07:20:39.454Z,2.40
2018-06-23T07:23:07.564Z,2.13
2018-06-23T07:25:35.669Z,2.13
2018-06-23T07:28:03.796Z,2.20
2018-06-23T07:30:31.916Z,1.73
2018-06-23T07:33:00.003Z,2.40
2018-06-23T07:35:28.123Z,2.10
2018-06-23T07:37:56.228Z,2.27
2018-06-23T07:40:24.104Z,2.80
2018-06-23T07:42:52.242Z,2.13
2018-06-23T07:45:20.386Z,2.30
2018-06-23T07:47:48.495Z,2.23
2018-06-23T07:50:16.575Z,2.33
2018-06-23T07:52:44.756Z,2.00
2018-06-23T07:55:12.884Z,2.20
2018-06-23T07:57:40.974Z,1.90
2018-06-23T08:00:09.068Z,2.33
2018-06-23T08:02:37.174Z,2.10
2018-06-23T08:05:05.295Z,2.27
2018-06-23T08:07:33.378Z,2.30
2018-06-23T08:10:01.547Z,2.07
2018-06-23T08:12:29.644Z,2.57
2018-06-23T08:14:57.835Z,2.33
2018-06-23T08:17:26.117Z,1.90
2018-06-23T08:19:54.231Z,2.30
2018-06-23T08:22:22.338Z,2.40
2018-06-23T08:24:50.464Z,2.23
2018-06-23T08:27:18.587Z,1.97
2018-06-23T08:29:46.777Z,2.33
2018-06-23T08:32:14.875Z,2.13
2018-06-23T08:34:42.971Z,1.80
2018-06-23T08:37:11.141Z,1.93
2018-06-23T08:39:39.256Z,1.97
2018-06-23T08:42:07.346Z,2.50
2018-06-23T08:44:35.488Z,2.50
2018-06-23T08:47:03.567Z,2.40
2018-06-23T08:49:31.714Z,1.97
2018-06-23T08:51:59.864Z,1.80
2018-06-23T08:54:27.970Z,2.17
2018-06-23T08:56:56.114Z,1.97
2018-06-23T08:59:24.183Z,2.73
2018-06-23T09:01:52.306Z,2.50
2018-06-23T09:04:20.915Z,2.00
2018-06-23T09:06:49.012Z,2.30
2018-06-23T09:09:17.089Z,2.40
2018-06-23T09:11:45.192Z,2.67
2018-06-23T09:14:13.300Z,3.30
2018-06-23T09:16:41.455Z,3.07
2018-06-23T09:19:09.497Z,4.47
2018-06-23T09:21:37.636Z,3.97
2018-06-23T09:24:05.856Z,3.50
2018-06-23T09:26:34.027Z,4.37
2018-06-23T09:29:02.115Z,5.53
2018-06-23T09:31:30.284Z,3.93
2018-06-23T09:33:58.371Z,4.20
2018-06-23T09:36:26.507Z,4.60
2018-06-23T09:38:54.583Z,3.37
2018-06-23T09:41:22.657Z,4.07
2018-06-23T09:43:50.736Z,3.37
2018-06-23T09:46:18.834Z,4.10
2018-06-23T09:48:46.914Z,3.70
2018-06-23T09:51:15.004Z,3.40
2018-06-23T09:53:43.079Z,3.07
2018-06-23T09:56:11.203Z,3.07
2018-06-23T09:58:39.298Z,3.43
2018-06-23T10:01:07.524Z,2.80
2018-06-23T10:03:35.481Z,2.80
2018-06-23T10:06:03.576Z,2.73
2018-06-23T10:08:31.669Z,2.63
2018-06-23T10:10:59.724Z,2.60
2018-06-23T10:13:27.817Z,3.20
2018-06-23T10:15:55.919Z,3.00
2018-06-23T10:18:24.020Z,2.90
2018-06-23T10:20:52.119Z,2.70
2018-06-23T10:23:20.229Z,2.17
2018-06-23T10:25:50.193Z,2.97
2018-06-23T10:28:18.515Z,2.30
2018-06-23T10:30:46.622Z,2.50
2018-06-23T10:33:14.700Z,2.93
2018-06-23T10:35:42.767Z,2.60
2018-06-23T10:38:10.957Z,2.63
2018-06-23T10:40:38.963Z,2.70
2018-06-23T10:43:07.044Z,2.53
2018-06-23T10:45:35.116Z,2.23
2018-06-23T10:48:03.227Z,2.30
2018-06-23T10:50:32.330Z,2.53
2018-06-23T10:53:00.406Z,2.70
2018-06-23T10:55:28.496Z,3.10
2018-06-23T10:57:56.733Z,2.97
2018-06-23T11:00:24.752Z,2.90
2018-06-23T11:02:52.836Z,2.80
2018-06-23T11:05:20.907Z,2.50
2018-06-23T11:07:49.013Z,2.83
2018-06-23T11:10:17.116Z,3.00
2018-06-23T11:12:45.225Z,2.97
2018-06-23T11:15:13.332Z,3.07
2018-06-23T11:17:41.404Z,2.80
2018-06-23T11:20:09.478Z,2.63
2018-06-23T11:22:37.585Z,2.30
2018-06-23T11:25:05.668Z,1.90
2018-06-23T11:27:33.788Z,2.30
2018-06-23T11:30:01.865Z,1.83
2018-06-23T11:32:29.940Z,2.27
2018-06-23T11:34:58.079Z,2.10
2018-06-23T11:37:26.222Z,2.63
2018-06-23T11:39:54.292Z,2.60
2018-06-23T11:42:22.389Z,2.63
2018-06-23T11:44:50.460Z,2.03
2018-06-23T11:47:18.552Z,2.57
2018-06-23T11:49:46.723Z,2.40
2018-06-23T11:52:14.848Z,2.20
2018-06-23T11:54:42.895Z,2.30
2018-06-23T11:57:11.056Z,2.70
2018-06-23T11:59:39.132Z,2.30
2018-06-23T12:02:07.374Z,2.13
2018-06-23T12:04:35.449Z,2.17
2018-06-23T12:07:03.536Z,2.40
2018-06-23T12:09:31.601Z,1.93
2018-06-23T12:11:59.688Z,1.70
2018-06-23T12:14:27.881Z,3.30
2018-06-23T12:16:55.943Z,1.97
2018-06-23T12:19:24.028Z,2.17
2018-06-23T12:21:52.087Z,2.13
2018-06-23T12:24:20.164Z,2.00
2018-06-23T12:26:48.232Z,1.93
2018-06-23T12:29:16.361Z,2.33
2018-06-23T12:31:44.447Z,2.00
2018-06-23T12:34:12.544Z,2.27
2018-06-23T12:36:40.607Z,2.27
2018-06-23T12:39:09.833Z,2.70
2018-06-23T12:41:38.143Z,2.00
2018-06-23T12:44:06.396Z,2.80
2018-06-23T12:46:34.587Z,2.73
2018-06-23T12:49:02.676Z,2.43
2018-06-23T12:51:30.748Z,2.83
2018-06-23T12:53:58.912Z,2.20
2018-06-23T12:56:27.008Z,2.60
2018-06-23T12:58:55.124Z,2.70
2018-06-23T13:01:23.200Z,2.40
2018-06-23T13:03:51.332Z,2.47
2018-06-23T13:06:19.664Z,2.03
2018-06-23T13:08:47.775Z,2.10
2018-06-23T13:11:15.871Z,2.47
2018-06-23T13:13:43.984Z,2.47
2018-06-23T13:16:12.179Z,2.00
2018-06-23T13:18:40.284Z,1.80
2018-06-23T13:21:08.411Z,2.17
2018-06-23T13:23:36.505Z,2.30
2018-06-23T13:26:04.788Z,2.10
2018-06-23T13:28:32.972Z,2.10
2018-06-23T13:31:01.095Z,1.97
2018-06-23T13:33:29.216Z,2.10
2018-06-23T13:35:57.296Z,1.90
2018-06-23T13:38:25.436Z,2.00
2018-06-23T13:40:53.529Z,2.10
2018-06-23T13:43:21.666Z,2.23
2018-06-23T13:45:49.810Z,2.03
2018-06-23T13:48:17.943Z,2.07
2018-06-23T13:50:46.044Z,2.17
2018-06-23T13:53:15.188Z,2.20
2018-06-23T13:55:43.371Z,2.30
2018-06-23T13:58:11.524Z,2.80
2018-06-23T14:00:39.626Z,2.03
2018-06-23T14:03:07.735Z,1.83
2018-06-23T14:05:35.821Z,2.10
2018-06-23T14:08:03.940Z,2.10
2018-06-23T14:10:32.068Z,2.30
2018-06-23T14:13:00.276Z,1.70
2018-06-23T14:15:28.381Z,1.90
2018-06-23T14:17:56.513Z,1.90
2018-06-23T14:20:24.622Z,1.80
2018-06-23T14:22:52.731Z,2.00
2018-06-23T14:25:20.894Z,2.43
2018-06-23T14:27:48.999Z,1.80
2018-06-23T14:30:17.110Z,2.30
2018-06-23T14:32:45.218Z,2.17
2018-06-23T14:35:13.297Z,2.43
2018-06-23T14:37:41.385Z,1.77
2018-06-23T14:40:09.610Z,1.73
2018-06-23T14:42:37.650Z,1.70
2018-06-23T14:45:05.796Z,2.07
2018-06-23T14:47:33.971Z,2.10
2018-06-23T14:50:02.036Z,2.63
2018-06-23T14:52:30.139Z,2.00
2018-06-23T14:54:58.256Z,2.13
2018-06-23T14:57:26.340Z,2.17
2018-06-23T14:59:54.436Z,2.00
2018-06-23T15:02:22.683Z,2.10
2018-06-23T15:04:50.568Z,1.97
2018-06-23T15:07:18.654Z,1.77
2018-06-23T15:09:58.107Z,1.77
2018-06-23T15:12:37.676Z,1.80
2018-06-23T15:15:05.827Z,1.90
2018-06-23T15:17:33.910Z,1.90
2018-06-23T15:20:02.278Z,2.20
2018-06-23T15:22:30.403Z,1.93
2018-06-23T15:24:58.512Z,2.33
2018-06-23T15:27:26.632Z,1.93
2018-06-23T15:29:54.760Z,2.23
2018-06-23T15:32:22.868Z,2.00
2018-06-23T15:34:50.955Z,1.97
2018-06-23T15:37:18.874Z,1.67
2018-06-23T15:39:46.982Z,2.03
2018-06-23T15:42:15.086Z,1.80
2018-06-23T15:44:43.204Z,2.07
2018-06-23T15:47:22.933Z,1.83
2018-06-23T15:49:51.053Z,1.70
2018-06-23T15:52:19.195Z,2.03
2018-06-23T15:54:47.502Z,2.17
2018-06-23T15:57:15.600Z,2.20
2018-06-23T15:59:43.740Z,2.43
2018-06-23T16:02:11.899Z,2.43
2018-06-23T16:04:40.004Z,2.10
2018-06-23T16:07:08.088Z,1.87
2018-06-23T16:09:36.184Z,1.87
2018-06-23T16:12:04.292Z,2.63
2018-06-23T16:14:32.404Z,1.97
2018-06-23T16:17:00.536Z,2.00
2018-06-23T16:19:28.667Z,2.07
2018-06-23T16:21:56.804Z,2.73
2018-06-23T16:24:24.928Z,2.00
2018-06-23T16:26:53.031Z,2.33
2018-06-23T16:29:21.108Z,2.13
2018-06-23T16:31:49.207Z,2.20
2018-06-23T16:34:17.316Z,1.60
2018-06-23T16:36:45.425Z,2.37
2018-06-23T16:39:13.524Z,2.50
2018-06-23T16:41:41.671Z,2.30
2018-06-23T16:44:09.768Z,2.43
2018-06-23T16:46:38.129Z,2.63
2018-06-23T16:49:06.211Z,1.97
2018-06-23T16:51:34.110Z,2.50
2018-06-23T16:54:02.210Z,2.13
2018-06-23T16:56:30.402Z,2.40
2018-06-23T16:58:58.439Z,2.00
2018-06-23T17:01:26.648Z,1.83
2018-06-23T17:03:54.817Z,1.83
2018-06-23T17:06:22.855Z,2.30
2018-06-23T17:08:50.997Z,2.23
2018-06-23T17:11:19.204Z,2.10
2018-06-23T17:13:47.315Z,2.00
2018-06-23T17:16:15.407Z,2.07
2018-06-23T17:18:43.491Z,2.33
2018-06-23T17:21:11.600Z,2.00
2018-06-23T17:23:39.703Z,1.73
2018-06-23T17:26:07.833Z,2.50
2018-06-23T17:28:35.972Z,2.00
2018-06-23T17:31:04.095Z,2.00
2018-06-23T17:33:32.184Z,1.50
2018-06-23T17:36:00.288Z,1.50
2018-06-23T17:38:28.467Z,1.80
2018-06-23T17:40:56.574Z,1.83
2018-06-23T17:43:24.808Z,1.90
2018-06-23T17:45:53.013Z,2.00
2018-06-23T17:48:21.245Z,3.90
2018-06-23T17:50:49.422Z,1.97
2018-06-23T17:53:17.538Z,1.40
2018-06-23T17:55:45.696Z,2.10
2018-06-23T17:58:13.834Z,1.70
2018-06-23T18:00:42.029Z,1.77
2018-06-23T18:03:10.123Z,2.03
2018-06-23T18:05:38.039Z,1.80
2018-06-23T18:08:06.211Z,2.10
2018-06-23T18:10:34.357Z,1.97
2018-06-23T18:13:02.560Z,2.00
2018-06-23T18:15:30.708Z,1.90
2018-06-23T18:17:58.943Z,1.87
2018-06-23T18:20:27.149Z,2.07
2018-06-23T18:22:55.253Z,2.00
2018-06-23T18:25:23.345Z,1.70
2018-06-23T18:27:51.455Z,2.07
2018-06-23T18:30:19.635Z,2.20
2018-06-23T18:32:47.775Z,2.07
2018-06-23T18:35:15.865Z,2.20
2018-06-23T18:37:43.774Z,1.93
2018-06-23T18:40:11.868Z,2.17
2018-06-23T18:42:39.991Z,2.00
2018-06-23T18:45:08.126Z,2.20
2018-06-23T18:47:36.235Z,2.37
2018-06-23T18:50:04.726Z,2.30
2018-06-23T18:52:33.168Z,2.27
2018-06-23T18:55:01.307Z,2.30
2018-06-23T18:57:29.402Z,2.20
2018-06-23T18:59:57.479Z,2.70
2018-06-23T19:02:25.671Z,2.70
2018-06-23T19:04:53.783Z,2.53
2018-06-23T19:07:22.324Z,2.40
2018-06-23T19:09:50.468Z,2.60
2018-06-23T19:12:18.665Z,1.97
2018-06-23T19:14:46.789Z,2.80
2018-06-23T19:17:14.916Z,2.00
2018-06-23T19:19:43.058Z,2.40
2018-06-23T19:22:11.667Z,2.40
2018-06-23T19:24:39.998Z,3.10
2018-06-23T19:27:07.917Z,2.10
2018-06-23T19:29:37.609Z,2.70
2018-06-23T19:32:05.775Z,2.10
2018-06-23T19:34:34.042Z,2.10
2018-06-23T19:37:07.459Z,2.00
2018-06-23T19:39:36.129Z,1.90
2018-06-23T19:42:05.055Z,2.50
2018-06-23T19:44:33.142Z,2.70
2018-06-23T19:47:01.462Z,2.53
2018-06-23T19:49:29.562Z,2.30
2018-06-23T19:51:58.111Z,2.90
2018-06-23T19:54:26.202Z,2.90
2018-06-23T19:56:54.332Z,2.37
2018-06-23T19:59:22.451Z,2.60
2018-06-23T20:01:50.583Z,2.13
2018-06-23T20:04:18.786Z,2.40
2018-06-23T20:06:46.871Z,2.30
2018-06-23T20:09:14.981Z,2.50
2018-06-23T20:11:43.099Z,2.57
2018-06-23T20:14:11.621Z,2.63
2018-06-23T20:16:39.772Z,2.40
2018-06-23T20:19:07.902Z,2.30
2018-06-23T20:21:35.988Z,2.63
2018-06-23T20:24:04.340Z,2.53
2018-06-23T20:26:32.651Z,2.53
2018-06-23T20:29:00.752Z,2.50
2018-06-23T20:31:28.847Z,2.67
2018-06-23T20:33:56.964Z,2.63
2018-06-23T20:36:25.088Z,2.43
2018-06-23T20:38:53.224Z,2.60
2018-06-23T20:41:21.348Z,2.00
2018-06-23T20:43:49.235Z,2.67
2018-06-23T20:46:17.348Z,2.40
2018-06-23T20:48:45.476Z,2.93
2018-06-23T20:51:13.652Z,2.50
2018-06-23T20:53:41.801Z,3.20
2018-06-23T20:56:09.916Z,2.50
2018-06-23T20:58:38.011Z,2.53
2018-06-23T21:01:06.184Z,2.60
2018-06-23T21:03:34.219Z,2.90
2018-06-23T21:06:02.315Z,2.90
2018-06-23T21:08:30.405Z,2.80
2018-06-23T21:10:58.572Z,2.40
2018-06-23T21:13:26.656Z,2.70
2018-06-23T21:15:54.740Z,2.30
2018-06-23T21:18:22.812Z,2.80
2018-06-23T21:20:50.935Z,2.20
2018-06-23T21:23:19.035Z,2.30
2018-06-23T21:25:47.162Z,2.40
2018-06-23T21:28:15.516Z,2.30
2018-06-23T21:30:43.709Z,2.90
2018-06-23T21:33:11.962Z,2.40
2018-06-23T21:35:40.044Z,2.47
2018-06-23T21:38:08.172Z,2.57
2018-06-23T21:40:36.276Z,2.70
2018-06-23T21:43:04.180Z,3.00
2018-06-23T21:45:32.060Z,2.53
2018-06-23T21:48:00.183Z,2.77
2018-06-23T21:50:28.288Z,2.70
2018-06-23T21:52:56.417Z,2.80
2018-06-23T21:55:24.508Z,2.80
2018-06-23T21:57:52.579Z,3.10
2018-06-23T22:00:36.488Z,2.73
2018-06-23T22:03:05.772Z,2.93
2018-06-23T22:05:34.172Z,3.60
2018-06-23T22:08:02.275Z,3.10
2018-06-23T22:10:30.627Z,2.93
2018-06-23T22:12:58.733Z,2.60
2018-06-23T22:15:26.874Z,2.80
2018-06-23T22:17:55.181Z,3.07
2018-06-23T22:20:23.259Z,2.90
2018-06-23T22:22:52.111Z,2.87
2018-06-23T22:25:20.535Z,3.00
2018-06-23T22:27:48.419Z,3.23
2018-06-23T22:30:16.508Z,3.10
2018-06-23T22:32:44.608Z,3.40
2018-06-23T22:35:12.910Z,3.47
2018-06-23T22:37:40.887Z,3.73
2018-06-23T22:40:09.690Z,3.60
2018-06-23T22:42:37.981Z,6.57
2018-06-23T22:45:06.788Z,3.90
2018-06-23T22:47:35.283Z,4.30
2018-06-23T22:50:03.822Z,4.27
2018-06-23T22:52:32.191Z,4.77
2018-06-23T22:55:00.468Z,3.50
2018-06-23T22:57:28.621Z,3.83
2018-06-23T22:59:56.763Z,3.90
2018-06-23T23:02:24.899Z,3.93
2018-06-23T23:04:53.067Z,4.03
2018-06-23T23:07:21.235Z,4.30
2018-06-23T23:09:49.344Z,3.73
2018-06-23T23:12:17.448Z,3.77
2018-06-23T23:14:45.532Z,4.47
2018-06-23T23:17:13.612Z,3.80
2018-06-23T23:19:41.842Z,3.70
2018-06-23T23:22:09.916Z,3.97
2018-06-23T23:24:37.990Z,3.90
2018-06-23T23:27:06.072Z,3.80
2018-06-23T23:29:34.163Z,3.93
2018-06-23T23:32:02.236Z,4.20
2018-06-23T23:34:30.344Z,4.07
2018-06-23T23:36:58.475Z,3.80
2018-06-23T23:39:26.582Z,3.87
2018-06-23T23:41:54.454Z,4.73
2018-06-23T23:44:22.351Z,3.83
2018-06-23T23:46:50.218Z,4.80
2018-06-23T23:49:18.291Z,4.10
2018-06-23T23:51:46.384Z,4.30
2018-06-23T23:54:14.493Z,3.80
2018-06-23T23:56:42.595Z,4.00
2018-06-23T23:59:10.706Z,4.80
